sensor_id;sensor_type;location;lat;lon;timestamp;P1;durP1;ratioP1;P2;durP2;ratioP2
74577;SDS011;63173;49.086;33.418;2023-03-01T00:00:36;21.42;;;8.32;;
74577;SDS011;63173;49.086;33.418;2023-03-01T00:03:02;25.20;;;10.02;;
74577;SDS011;63173;49.086;33.418;2023-03-01T00:05:27;27.67;;;10.90;;
74577;SDS011;63173;49.086;33.418;2023-03-01T00:07:53;26.73;;;9.38;;
74577;SDS011;63173;49.086;33.418;2023-03-01T00:10:18;23.25;;;9.45;;
74577;SDS011;63173;49.086;33.418;2023-03-01T00:12:44;18.92;;;7.88;;
74577;SDS011;63173;49.086;33.418;2023-03-01T00:15:09;23.08;;;9.90;;
74577;SDS011;63173;49.086;33.418;2023-03-01T00:17:35;24.50;;;9.40;;
74577;SDS011;63173;49.086;33.418;2023-03-01T00:20:00;27.25;;;9.70;;
74577;SDS011;63173;49.086;33.418;2023-03-01T00:22:26;15.75;;;7.30;;
74577;SDS011;63173;49.086;33.418;2023-03-01T00:24:53;22.05;;;9.57;;
74577;SDS011;63173;49.086;33.418;2023-03-01T00:27:18;22.05;;;9.07;;
74577;SDS011;63173;49.086;33.418;2023-03-01T00:29:44;22.38;;;9.43;;
74577;SDS011;63173;49.086;33.418;2023-03-01T00:32:10;28.17;;;9.98;;
74577;SDS011;63173;49.086;33.418;2023-03-01T00:34:35;18.42;;;7.72;;
74577;SDS011;63173;49.086;33.418;2023-03-01T00:37:00;26.52;;;10.05;;
74577;SDS011;63173;49.086;33.418;2023-03-01T00:41:55;24.33;;;8.93;;
74577;SDS011;63173;49.086;33.418;2023-03-01T00:44:21;23.45;;;9.50;;
74577;SDS011;63173;49.086;33.418;2023-03-01T00:46:47;27.75;;;10.65;;
74577;SDS011;63173;49.086;33.418;2023-03-01T00:49:13;29.25;;;11.27;;
74577;SDS011;63173;49.086;33.418;2023-03-01T00:51:38;26.83;;;10.80;;
74577;SDS011;63173;49.086;33.418;2023-03-01T00:54:07;27.92;;;10.93;;
74577;SDS011;63173;49.086;33.418;2023-03-01T00:56:34;27.45;;;10.98;;
74577;SDS011;63173;49.086;33.418;2023-03-01T00:58:59;26.27;;;9.63;;
74577;SDS011;63173;49.086;33.418;2023-03-01T01:01:26;26.27;;;10.43;;
74577;SDS011;63173;49.086;33.418;2023-03-01T01:03:57;29.90;;;12.25;;
74577;SDS011;63173;49.086;33.418;2023-03-01T01:06:25;30.25;;;13.00;;
74577;SDS011;63173;49.086;33.418;2023-03-01T01:08:53;35.50;;;13.13;;
74577;SDS011;63173;49.086;33.418;2023-03-01T01:11:19;27.33;;;11.77;;
74577;SDS011;63173;49.086;33.418;2023-03-01T01:13:46;29.63;;;11.88;;
74577;SDS011;63173;49.086;33.418;2023-03-01T01:16:12;29.90;;;12.52;;
74577;SDS011;63173;49.086;33.418;2023-03-01T01:18:38;24.00;;;10.40;;
74577;SDS011;63173;49.086;33.418;2023-03-01T01:21:08;29.42;;;11.07;;
74577;SDS011;63173;49.086;33.418;2023-03-01T01:23:38;24.48;;;9.98;;
74577;SDS011;63173;49.086;33.418;2023-03-01T01:26:05;23.77;;;9.10;;
74577;SDS011;63173;49.086;33.418;2023-03-01T01:28:32;17.17;;;7.43;;
74577;SDS011;63173;49.086;33.418;2023-03-01T01:30:57;27.73;;;10.13;;
74577;SDS011;63173;49.086;33.418;2023-03-01T01:33:23;27.75;;;10.43;;
74577;SDS011;63173;49.086;33.418;2023-03-01T01:35:48;22.10;;;9.38;;
74577;SDS011;63173;49.086;33.418;2023-03-01T01:38:14;26.75;;;9.43;;
74577;SDS011;63173;49.086;33.418;2023-03-01T01:40:43;15.50;;;6.68;;
74577;SDS011;63173;49.086;33.418;2023-03-01T01:43:26;21.63;;;9.02;;
74577;SDS011;63173;49.086;33.418;2023-03-01T01:45:59;23.45;;;8.80;;
74577;SDS011;63173;49.086;33.418;2023-03-01T01:48:29;24.20;;;9.20;;
74577;SDS011;63173;49.086;33.418;2023-03-01T01:51:05;19.35;;;8.30;;
74577;SDS011;63173;49.086;33.418;2023-03-01T01:53:38;21.08;;;9.70;;
74577;SDS011;63173;49.086;33.418;2023-03-01T01:56:05;27.02;;;9.60;;
74577;SDS011;63173;49.086;33.418;2023-03-01T01:58:33;28.02;;;9.98;;
74577;SDS011;63173;49.086;33.418;2023-03-01T02:00:59;27.98;;;11.43;;
74577;SDS011;63173;49.086;33.418;2023-03-01T02:03:27;16.50;;;7.05;;
74577;SDS011;63173;49.086;33.418;2023-03-01T02:08:24;18.77;;;7.70;;
74577;SDS011;63173;49.086;33.418;2023-03-01T02:10:55;23.75;;;9.73;;
74577;SDS011;63173;49.086;33.418;2023-03-01T02:13:22;14.30;;;6.07;;
74577;SDS011;63173;49.086;33.418;2023-03-01T02:15:48;26.13;;;11.52;;
74577;SDS011;63173;49.086;33.418;2023-03-01T02:18:14;21.77;;;8.90;;
74577;SDS011;63173;49.086;33.418;2023-03-01T02:20:56;25.35;;;9.63;;
74577;SDS011;63173;49.086;33.418;2023-03-01T02:23:38;26.75;;;10.20;;
74577;SDS011;63173;49.086;33.418;2023-03-01T02:28:37;19.95;;;7.10;;
74577;SDS011;63173;49.086;33.418;2023-03-01T02:31:05;21.90;;;9.18;;
74577;SDS011;63173;49.086;33.418;2023-03-01T02:33:52;20.70;;;8.07;;
74577;SDS011;63173;49.086;33.418;2023-03-01T02:36:20;24.52;;;9.02;;
74577;SDS011;63173;49.086;33.418;2023-03-01T02:38:50;25.50;;;10.30;;
74577;SDS011;63173;49.086;33.418;2023-03-01T02:41:19;24.42;;;9.07;;
74577;SDS011;63173;49.086;33.418;2023-03-01T02:43:46;20.80;;;7.60;;
74577;SDS011;63173;49.086;33.418;2023-03-01T02:46:16;19.25;;;8.13;;
74577;SDS011;63173;49.086;33.418;2023-03-01T02:48:46;16.67;;;6.43;;
74577;SDS011;63173;49.086;33.418;2023-03-01T02:56:56;19.83;;;8.68;;
74577;SDS011;63173;49.086;33.418;2023-03-01T02:59:24;13.98;;;5.38;;
74577;SDS011;63173;49.086;33.418;2023-03-01T03:01:54;20.70;;;8.38;;
74577;SDS011;63173;49.086;33.418;2023-03-01T03:04:19;20.98;;;8.30;;
74577;SDS011;63173;49.086;33.418;2023-03-01T03:06:46;28.33;;;9.60;;
74577;SDS011;63173;49.086;33.418;2023-03-01T03:09:13;25.67;;;7.65;;
74577;SDS011;63173;49.086;33.418;2023-03-01T03:11:40;20.02;;;8.25;;
74577;SDS011;63173;49.086;33.418;2023-03-01T03:14:08;14.20;;;5.85;;
74577;SDS011;63173;49.086;33.418;2023-03-01T03:16:42;22.27;;;7.38;;
74577;SDS011;63173;49.086;33.418;2023-03-01T03:19:08;21.10;;;7.90;;
74577;SDS011;63173;49.086;33.418;2023-03-01T03:21:34;19.90;;;8.50;;
74577;SDS011;63173;49.086;33.418;2023-03-01T03:24:00;18.85;;;8.50;;
74577;SDS011;63173;49.086;33.418;2023-03-01T03:26:26;18.58;;;7.63;;
74577;SDS011;63173;49.086;33.418;2023-03-01T03:28:51;18.50;;;8.00;;
74577;SDS011;63173;49.086;33.418;2023-03-01T03:31:16;19.48;;;9.02;;
74577;SDS011;63173;49.086;33.418;2023-03-01T03:33:42;21.00;;;8.27;;
74577;SDS011;63173;49.086;33.418;2023-03-01T03:36:08;13.02;;;5.97;;
74577;SDS011;63173;49.086;33.418;2023-03-01T03:38:38;20.90;;;8.90;;
74577;SDS011;63173;49.086;33.418;2023-03-01T03:41:05;19.67;;;9.05;;
74577;SDS011;63173;49.086;33.418;2023-03-01T03:43:34;15.52;;;6.60;;
74577;SDS011;63173;49.086;33.418;2023-03-01T03:46:01;16.23;;;7.55;;
74577;SDS011;63173;49.086;33.418;2023-03-01T03:48:30;20.40;;;7.63;;
74577;SDS011;63173;49.086;33.418;2023-03-01T03:50:58;16.17;;;7.43;;
74577;SDS011;63173;49.086;33.418;2023-03-01T03:53:24;21.95;;;8.52;;
74577;SDS011;63173;49.086;33.418;2023-03-01T03:55:50;22.00;;;8.65;;
74577;SDS011;63173;49.086;33.418;2023-03-01T03:58:16;24.20;;;8.63;;
74577;SDS011;63173;49.086;33.418;2023-03-01T04:00:44;20.58;;;8.13;;
74577;SDS011;63173;49.086;33.418;2023-03-01T04:03:11;18.65;;;8.68;;
74577;SDS011;63173;49.086;33.418;2023-03-01T04:05:38;20.05;;;8.10;;
74577;SDS011;63173;49.086;33.418;2023-03-01T04:08:05;22.05;;;8.63;;
74577;SDS011;63173;49.086;33.418;2023-03-01T04:10:36;17.25;;;8.80;;
74577;SDS011;63173;49.086;33.418;2023-03-01T04:13:06;20.80;;;8.52;;
74577;SDS011;63173;49.086;33.418;2023-03-01T04:15:34;21.63;;;8.55;;
74577;SDS011;63173;49.086;33.418;2023-03-01T04:18:00;21.83;;;8.85;;
74577;SDS011;63173;49.086;33.418;2023-03-01T04:20:28;13.88;;;6.60;;
74577;SDS011;63173;49.086;33.418;2023-03-01T04:22:59;22.23;;;7.35;;
74577;SDS011;63173;49.086;33.418;2023-03-01T04:25:39;21.63;;;8.55;;
74577;SDS011;63173;49.086;33.418;2023-03-01T04:28:05;14.80;;;7.13;;
74577;SDS011;63173;49.086;33.418;2023-03-01T04:30:31;14.10;;;5.90;;
74577;SDS011;63173;49.086;33.418;2023-03-01T04:33:01;15.48;;;6.03;;
74577;SDS011;63173;49.086;33.418;2023-03-01T04:35:28;18.48;;;8.00;;
74577;SDS011;63173;49.086;33.418;2023-03-01T04:37:54;14.65;;;6.82;;
74577;SDS011;63173;49.086;33.418;2023-03-01T04:40:20;17.02;;;7.05;;
74577;SDS011;63173;49.086;33.418;2023-03-01T04:42:46;21.30;;;8.13;;
74577;SDS011;63173;49.086;33.418;2023-03-01T04:45:12;16.88;;;6.93;;
74577;SDS011;63173;49.086;33.418;2023-03-01T04:47:41;9.02;;;4.85;;
74577;SDS011;63173;49.086;33.418;2023-03-01T04:50:08;15.15;;;6.40;;
74577;SDS011;63173;49.086;33.418;2023-03-01T04:52:35;18.30;;;5.68;;
74577;SDS011;63173;49.086;33.418;2023-03-01T04:55:01;10.88;;;4.50;;
74577;SDS011;63173;49.086;33.418;2023-03-01T04:57:26;17.67;;;6.68;;
74577;SDS011;63173;49.086;33.418;2023-03-01T04:59:52;15.25;;;6.03;;
74577;SDS011;63173;49.086;33.418;2023-03-01T05:02:17;16.88;;;6.28;;
74577;SDS011;63173;49.086;33.418;2023-03-01T05:04:42;13.93;;;5.53;;
74577;SDS011;63173;49.086;33.418;2023-03-01T05:07:08;18.48;;;6.65;;
74577;SDS011;63173;49.086;33.418;2023-03-01T05:09:34;16.73;;;6.93;;
74577;SDS011;63173;49.086;33.418;2023-03-01T05:11:59;15.75;;;5.72;;
74577;SDS011;63173;49.086;33.418;2023-03-01T05:14:24;14.35;;;5.93;;
74577;SDS011;63173;49.086;33.418;2023-03-01T05:16:50;14.20;;;5.80;;
74577;SDS011;63173;49.086;33.418;2023-03-01T05:19:15;10.07;;;4.72;;
74577;SDS011;63173;49.086;33.418;2023-03-01T05:21:42;17.90;;;6.95;;
74577;SDS011;63173;49.086;33.418;2023-03-01T05:24:26;15.77;;;6.45;;
74577;SDS011;63173;49.086;33.418;2023-03-01T05:26:53;16.10;;;5.30;;
74577;SDS011;63173;49.086;33.418;2023-03-01T05:29:19;15.15;;;6.75;;
74577;SDS011;63173;49.086;33.418;2023-03-01T05:31:50;15.00;;;6.13;;
74577;SDS011;63173;49.086;33.418;2023-03-01T05:34:22;14.07;;;5.75;;
74577;SDS011;63173;49.086;33.418;2023-03-01T05:36:52;12.07;;;4.75;;
74577;SDS011;63173;49.086;33.418;2023-03-01T05:39:22;14.90;;;6.95;;
74577;SDS011;63173;49.086;33.418;2023-03-01T05:41:55;15.85;;;6.63;;
74577;SDS011;63173;49.086;33.418;2023-03-01T05:44:22;19.05;;;7.78;;
74577;SDS011;63173;49.086;33.418;2023-03-01T05:46:48;15.57;;;6.72;;
74577;SDS011;63173;49.086;33.418;2023-03-01T05:49:14;18.65;;;7.68;;
74577;SDS011;63173;49.086;33.418;2023-03-01T05:51:41;18.98;;;7.30;;
74577;SDS011;63173;49.086;33.418;2023-03-01T05:54:08;16.58;;;5.55;;
74577;SDS011;63173;49.086;33.418;2023-03-01T05:56:36;15.65;;;6.68;;
74577;SDS011;63173;49.086;33.418;2023-03-01T05:59:02;17.45;;;7.20;;
74577;SDS011;63173;49.086;33.418;2023-03-01T06:01:29;13.02;;;4.35;;
74577;SDS011;63173;49.086;33.418;2023-03-01T06:03:55;14.00;;;5.32;;
74577;SDS011;63173;49.086;33.418;2023-03-01T06:06:21;14.57;;;6.10;;
74577;SDS011;63173;49.086;33.418;2023-03-01T06:08:47;15.27;;;6.93;;
74577;SDS011;63173;49.086;33.418;2023-03-01T06:11:13;17.15;;;7.13;;
74577;SDS011;63173;49.086;33.418;2023-03-01T06:13:38;13.45;;;5.57;;
74577;SDS011;63173;49.086;33.418;2023-03-01T06:16:04;11.95;;;4.55;;
74577;SDS011;63173;49.086;33.418;2023-03-01T06:18:31;15.13;;;6.30;;
74577;SDS011;63173;49.086;33.418;2023-03-01T06:20:56;16.10;;;6.57;;
74577;SDS011;63173;49.086;33.418;2023-03-01T06:23:22;15.43;;;7.88;;
74577;SDS011;63173;49.086;33.418;2023-03-01T06:25:48;15.55;;;6.85;;
74577;SDS011;63173;49.086;33.418;2023-03-01T06:28:14;21.25;;;7.03;;
74577;SDS011;63173;49.086;33.418;2023-03-01T06:30:40;12.27;;;4.85;;
74577;SDS011;63173;49.086;33.418;2023-03-01T06:33:05;18.40;;;7.40;;
74577;SDS011;63173;49.086;33.418;2023-03-01T06:35:31;17.67;;;7.82;;
74577;SDS011;63173;49.086;33.418;2023-03-01T06:37:57;19.58;;;8.25;;
74577;SDS011;63173;49.086;33.418;2023-03-01T06:40:23;25.80;;;8.77;;
74577;SDS011;63173;49.086;33.418;2023-03-01T06:42:49;21.80;;;7.72;;
74577;SDS011;63173;49.086;33.418;2023-03-01T06:45:16;17.48;;;6.03;;
74577;SDS011;63173;49.086;33.418;2023-03-01T06:47:42;20.42;;;6.78;;
74577;SDS011;63173;49.086;33.418;2023-03-01T06:50:08;23.67;;;7.63;;
74577;SDS011;63173;49.086;33.418;2023-03-01T06:52:34;18.35;;;8.15;;
74577;SDS011;63173;49.086;33.418;2023-03-01T06:54:59;18.25;;;6.82;;
74577;SDS011;63173;49.086;33.418;2023-03-01T06:57:25;22.70;;;10.15;;
74577;SDS011;63173;49.086;33.418;2023-03-01T06:59:51;14.32;;;6.50;;
74577;SDS011;63173;49.086;33.418;2023-03-01T07:02:16;13.30;;;4.90;;
74577;SDS011;63173;49.086;33.418;2023-03-01T07:04:42;20.15;;;6.93;;
74577;SDS011;63173;49.086;33.418;2023-03-01T07:07:07;18.77;;;6.80;;
74577;SDS011;63173;49.086;33.418;2023-03-01T07:09:33;19.60;;;6.90;;
74577;SDS011;63173;49.086;33.418;2023-03-01T07:11:59;15.90;;;7.53;;
74577;SDS011;63173;49.086;33.418;2023-03-01T07:14:25;13.65;;;6.22;;
74577;SDS011;63173;49.086;33.418;2023-03-01T07:16:51;17.80;;;8.00;;
74577;SDS011;63173;49.086;33.418;2023-03-01T07:19:17;20.30;;;7.65;;
74577;SDS011;63173;49.086;33.418;2023-03-01T07:21:42;22.10;;;9.90;;
74577;SDS011;63173;49.086;33.418;2023-03-01T07:24:08;18.95;;;8.10;;
74577;SDS011;63173;49.086;33.418;2023-03-01T07:26:34;21.70;;;7.75;;
74577;SDS011;63173;49.086;33.418;2023-03-01T07:29:00;19.67;;;8.25;;
74577;SDS011;63173;49.086;33.418;2023-03-01T07:31:26;20.67;;;7.10;;
74577;SDS011;63173;49.086;33.418;2023-03-01T07:33:53;17.05;;;7.53;;
74577;SDS011;63173;49.086;33.418;2023-03-01T07:36:19;20.40;;;8.93;;
74577;SDS011;63173;49.086;33.418;2023-03-01T07:38:44;19.02;;;8.85;;
74577;SDS011;63173;49.086;33.418;2023-03-01T07:41:10;26.27;;;10.73;;
74577;SDS011;63173;49.086;33.418;2023-03-01T07:43:35;20.15;;;9.25;;
74577;SDS011;63173;49.086;33.418;2023-03-01T07:46:01;25.92;;;10.45;;
74577;SDS011;63173;49.086;33.418;2023-03-01T07:48:27;19.30;;;8.90;;
74577;SDS011;63173;49.086;33.418;2023-03-01T07:50:53;23.13;;;10.07;;
74577;SDS011;63173;49.086;33.418;2023-03-01T07:53:19;23.20;;;10.20;;
74577;SDS011;63173;49.086;33.418;2023-03-01T07:55:44;21.13;;;9.13;;
74577;SDS011;63173;49.086;33.418;2023-03-01T07:58:09;22.88;;;10.10;;
74577;SDS011;63173;49.086;33.418;2023-03-01T08:00:35;15.65;;;6.53;;
74577;SDS011;63173;49.086;33.418;2023-03-01T08:03:01;20.63;;;9.80;;
74577;SDS011;63173;49.086;33.418;2023-03-01T08:05:27;20.95;;;8.68;;
74577;SDS011;63173;49.086;33.418;2023-03-01T08:07:53;20.52;;;9.07;;
74577;SDS011;63173;49.086;33.418;2023-03-01T08:10:19;26.00;;;10.20;;
74577;SDS011;63173;49.086;33.418;2023-03-01T08:12:44;21.05;;;7.72;;
74577;SDS011;63173;49.086;33.418;2023-03-01T08:15:10;19.70;;;7.28;;
74577;SDS011;63173;49.086;33.418;2023-03-01T08:17:36;20.20;;;8.85;;
74577;SDS011;63173;49.086;33.418;2023-03-01T08:20:01;21.38;;;9.63;;
74577;SDS011;63173;49.086;33.418;2023-03-01T08:22:29;18.10;;;7.05;;
74577;SDS011;63173;49.086;33.418;2023-03-01T08:24:54;22.63;;;9.32;;
74577;SDS011;63173;49.086;33.418;2023-03-01T08:27:20;27.20;;;9.98;;
74577;SDS011;63173;49.086;33.418;2023-03-01T08:29:46;20.63;;;8.82;;
74577;SDS011;63173;49.086;33.418;2023-03-01T08:32:12;19.45;;;7.35;;
74577;SDS011;63173;49.086;33.418;2023-03-01T08:34:37;23.05;;;10.30;;
74577;SDS011;63173;49.086;33.418;2023-03-01T08:37:03;23.67;;;8.98;;
74577;SDS011;63173;49.086;33.418;2023-03-01T08:39:28;19.90;;;9.48;;
74577;SDS011;63173;49.086;33.418;2023-03-01T08:41:54;20.83;;;8.40;;
74577;SDS011;63173;49.086;33.418;2023-03-01T08:44:19;17.70;;;7.90;;
74577;SDS011;63173;49.086;33.418;2023-03-01T08:46:46;30.05;;;11.60;;
74577;SDS011;63173;49.086;33.418;2023-03-01T08:49:16;19.88;;;9.55;;
74577;SDS011;63173;49.086;33.418;2023-03-01T08:51:43;22.08;;;10.57;;
74577;SDS011;63173;49.086;33.418;2023-03-01T08:54:11;18.20;;;7.97;;
74577;SDS011;63173;49.086;33.418;2023-03-01T08:56:43;25.90;;;9.88;;
74577;SDS011;63173;49.086;33.418;2023-03-01T08:59:10;32.33;;;11.43;;
74577;SDS011;63173;49.086;33.418;2023-03-01T09:01:36;26.25;;;10.60;;
74577;SDS011;63173;49.086;33.418;2023-03-01T09:04:02;26.02;;;10.75;;
74577;SDS011;63173;49.086;33.418;2023-03-01T09:06:29;25.00;;;9.75;;
74577;SDS011;63173;49.086;33.418;2023-03-01T09:11:22;21.40;;;9.07;;
74577;SDS011;63173;49.086;33.418;2023-03-01T09:13:47;27.75;;;10.90;;
74577;SDS011;63173;49.086;33.418;2023-03-01T09:16:14;25.38;;;10.00;;
74577;SDS011;63173;49.086;33.418;2023-03-01T09:18:42;33.90;;;13.65;;
74577;SDS011;63173;49.086;33.418;2023-03-01T09:21:10;24.40;;;11.60;;
74577;SDS011;63173;49.086;33.418;2023-03-01T09:23:38;27.17;;;11.75;;
74577;SDS011;63173;49.086;33.418;2023-03-01T09:26:09;20.80;;;9.20;;
74577;SDS011;63173;49.086;33.418;2023-03-01T09:28:37;22.65;;;10.65;;
74577;SDS011;63173;49.086;33.418;2023-03-01T09:31:03;23.20;;;9.95;;
74577;SDS011;63173;49.086;33.418;2023-03-01T09:33:29;32.58;;;14.10;;
74577;SDS011;63173;49.086;33.418;2023-03-01T09:36:03;23.40;;;11.98;;
74577;SDS011;63173;49.086;33.418;2023-03-01T09:38:30;25.60;;;11.27;;
74577;SDS011;63173;49.086;33.418;2023-03-01T09:40:56;18.63;;;8.57;;
74577;SDS011;63173;49.086;33.418;2023-03-01T09:45:50;19.65;;;9.55;;
74577;SDS011;63173;49.086;33.418;2023-03-01T09:48:21;22.60;;;8.93;;
74577;SDS011;63173;49.086;33.418;2023-03-01T09:53:22;21.58;;;8.82;;
74577;SDS011;63173;49.086;33.418;2023-03-01T09:56:05;16.85;;;8.40;;
74577;SDS011;63173;49.086;33.418;2023-03-01T09:58:54;20.13;;;9.02;;
74577;SDS011;63173;49.086;33.418;2023-03-01T10:09:34;26.95;;;9.75;;
74577;SDS011;63173;49.086;33.418;2023-03-01T10:12:04;22.88;;;9.82;;
74577;SDS011;63173;49.086;33.418;2023-03-01T10:14:36;17.58;;;8.55;;
74577;SDS011;63173;49.086;33.418;2023-03-01T10:17:15;17.83;;;7.70;;
74577;SDS011;63173;49.086;33.418;2023-03-01T10:19:50;17.60;;;7.78;;
74577;SDS011;63173;49.086;33.418;2023-03-01T10:24:42;21.55;;;9.63;;
74577;SDS011;63173;49.086;33.418;2023-03-01T10:27:18;27.73;;;8.80;;
74577;SDS011;63173;49.086;33.418;2023-03-01T10:29:58;22.80;;;9.32;;
74577;SDS011;63173;49.086;33.418;2023-03-01T10:32:46;22.60;;;8.90;;
74577;SDS011;63173;49.086;33.418;2023-03-01T10:35:23;20.17;;;9.52;;
74577;SDS011;63173;49.086;33.418;2023-03-01T10:38:06;25.33;;;9.00;;
74577;SDS011;63173;49.086;33.418;2023-03-01T10:43:15;23.58;;;9.80;;
74577;SDS011;63173;49.086;33.418;2023-03-01T10:45:41;24.00;;;10.23;;
74577;SDS011;63173;49.086;33.418;2023-03-01T10:48:17;26.30;;;10.13;;
74577;SDS011;63173;49.086;33.418;2023-03-01T10:50:49;21.20;;;9.82;;
74577;SDS011;63173;49.086;33.418;2023-03-01T10:53:32;27.40;;;12.35;;
74577;SDS011;63173;49.086;33.418;2023-03-01T10:56:00;18.52;;;8.20;;
74577;SDS011;63173;49.086;33.418;2023-03-01T10:58:29;31.00;;;12.82;;
74577;SDS011;63173;49.086;33.418;2023-03-01T11:00:59;16.73;;;7.85;;
74577;SDS011;63173;49.086;33.418;2023-03-01T11:03:35;16.77;;;7.95;;
74577;SDS011;63173;49.086;33.418;2023-03-01T11:06:04;18.10;;;9.23;;
74577;SDS011;63173;49.086;33.418;2023-03-01T11:11:34;21.95;;;10.00;;
74577;SDS011;63173;49.086;33.418;2023-03-01T11:16:26;21.17;;;9.48;;
74577;SDS011;63173;49.086;33.418;2023-03-01T11:18:57;26.50;;;9.75;;
74577;SDS011;63173;49.086;33.418;2023-03-01T11:21:26;25.52;;;11.02;;
74577;SDS011;63173;49.086;33.418;2023-03-01T11:23:55;28.45;;;11.23;;
74577;SDS011;63173;49.086;33.418;2023-03-01T11:26:24;25.38;;;9.43;;
74577;SDS011;63173;49.086;33.418;2023-03-01T11:28:50;23.50;;;9.98;;
74577;SDS011;63173;49.086;33.418;2023-03-01T11:31:20;25.23;;;10.35;;
74577;SDS011;63173;49.086;33.418;2023-03-01T11:33:59;22.67;;;9.60;;
74577;SDS011;63173;49.086;33.418;2023-03-01T11:44:42;23.25;;;9.50;;
74577;SDS011;63173;49.086;33.418;2023-03-01T12:01:30;19.20;;;9.25;;
74577;SDS011;63173;49.086;33.418;2023-03-01T12:07:10;19.60;;;8.23;;
74577;SDS011;63173;49.086;33.418;2023-03-01T12:09:47;22.67;;;9.30;;
74577;SDS011;63173;49.086;33.418;2023-03-01T12:25:43;26.92;;;11.07;;
74577;SDS011;63173;49.086;33.418;2023-03-01T12:29:00;22.85;;;9.90;;
74577;SDS011;63173;49.086;33.418;2023-03-01T12:34:14;26.33;;;8.95;;
74577;SDS011;63173;49.086;33.418;2023-03-01T12:55:16;18.90;;;8.73;;
74577;SDS011;63173;49.086;33.418;2023-03-01T12:57:47;20.20;;;7.88;;
74577;SDS011;63173;49.086;33.418;2023-03-01T13:00:30;21.38;;;8.20;;
74577;SDS011;63173;49.086;33.418;2023-03-01T13:17:47;23.13;;;8.77;;
74577;SDS011;63173;49.086;33.418;2023-03-01T13:20:33;19.02;;;8.95;;
74577;SDS011;63173;49.086;33.418;2023-03-01T13:23:12;18.38;;;8.00;;
74577;SDS011;63173;49.086;33.418;2023-03-01T13:31:00;20.73;;;9.02;;
74577;SDS011;63173;49.086;33.418;2023-03-01T13:33:49;22.58;;;9.82;;
74577;SDS011;63173;49.086;33.418;2023-03-01T13:49:25;17.98;;;8.63;;
74577;SDS011;63173;49.086;33.418;2023-03-01T13:51:53;21.30;;;9.73;;
74577;SDS011;63173;49.086;33.418;2023-03-01T13:54:24;18.20;;;8.50;;
74577;SDS011;63173;49.086;33.418;2023-03-01T13:56:53;17.92;;;8.82;;
74577;SDS011;63173;49.086;33.418;2023-03-01T13:59:21;24.75;;;10.68;;
74577;SDS011;63173;49.086;33.418;2023-03-01T14:01:54;20.70;;;8.75;;
74577;SDS011;63173;49.086;33.418;2023-03-01T14:04:29;18.23;;;7.75;;
74577;SDS011;63173;49.086;33.418;2023-03-01T14:07:12;19.00;;;8.38;;
74577;SDS011;63173;49.086;33.418;2023-03-01T14:09:44;16.40;;;7.45;;
74577;SDS011;63173;49.086;33.418;2023-03-01T14:12:15;16.55;;;7.55;;
74577;SDS011;63173;49.086;33.418;2023-03-01T14:15:09;18.20;;;8.20;;
74577;SDS011;63173;49.086;33.418;2023-03-01T14:17:59;19.90;;;9.50;;
74577;SDS011;63173;49.086;33.418;2023-03-01T14:20:46;18.30;;;8.23;;
74577;SDS011;63173;49.086;33.418;2023-03-01T14:23:17;18.95;;;8.75;;
74577;SDS011;63173;49.086;33.418;2023-03-01T14:25:54;19.77;;;9.18;;
74577;SDS011;63173;49.086;33.418;2023-03-01T14:28:28;24.50;;;10.93;;
74577;SDS011;63173;49.086;33.418;2023-03-01T14:30:59;21.88;;;10.60;;
74577;SDS011;63173;49.086;33.418;2023-03-01T14:33:26;29.55;;;11.50;;
74577;SDS011;63173;49.086;33.418;2023-03-01T14:35:53;27.05;;;12.15;;
74577;SDS011;63173;49.086;33.418;2023-03-01T14:40:58;39.17;;;16.85;;
74577;SDS011;63173;49.086;33.418;2023-03-01T14:43:27;33.58;;;15.55;;
74577;SDS011;63173;49.086;33.418;2023-03-01T14:45:54;36.45;;;13.98;;
74577;SDS011;63173;49.086;33.418;2023-03-01T14:48:20;33.45;;;14.13;;
74577;SDS011;63173;49.086;33.418;2023-03-01T14:50:46;49.42;;;16.67;;
74577;SDS011;63173;49.086;33.418;2023-03-01T14:53:16;37.40;;;13.93;;
74577;SDS011;63173;49.086;33.418;2023-03-01T14:55:48;40.70;;;15.75;;
74577;SDS011;63173;49.086;33.418;2023-03-01T14:58:19;39.80;;;14.48;;
74577;SDS011;63173;49.086;33.418;2023-03-01T15:00:48;39.05;;;15.90;;
74577;SDS011;63173;49.086;33.418;2023-03-01T15:03:35;30.73;;;11.02;;
74577;SDS011;63173;49.086;33.418;2023-03-01T15:06:07;22.45;;;9.40;;
74577;SDS011;63173;49.086;33.418;2023-03-01T15:08:34;27.75;;;10.80;;
74577;SDS011;63173;49.086;33.418;2023-03-01T15:11:05;27.25;;;11.43;;
74577;SDS011;63173;49.086;33.418;2023-03-01T15:13:48;20.17;;;8.45;;
74577;SDS011;63173;49.086;33.418;2023-03-01T15:16:18;32.58;;;12.45;;
74577;SDS011;63173;49.086;33.418;2023-03-01T15:18:48;28.20;;;11.95;;
74577;SDS011;63173;49.086;33.418;2023-03-01T15:23:48;36.85;;;14.07;;
74577;SDS011;63173;49.086;33.418;2023-03-01T15:26:37;32.20;;;12.25;;
74577;SDS011;63173;49.086;33.418;2023-03-01T15:31:41;23.98;;;10.18;;
74577;SDS011;63173;49.086;33.418;2023-03-01T15:34:09;31.80;;;12.50;;
74577;SDS011;63173;49.086;33.418;2023-03-01T15:41:55;33.15;;;12.40;;
74577;SDS011;63173;49.086;33.418;2023-03-01T15:44:28;34.60;;;14.35;;
74577;SDS011;63173;49.086;33.418;2023-03-01T15:46:54;35.75;;;12.48;;
74577;SDS011;63173;49.086;33.418;2023-03-01T15:49:25;32.45;;;12.77;;
74577;SDS011;63173;49.086;33.418;2023-03-01T15:51:58;25.55;;;11.20;;
74577;SDS011;63173;49.086;33.418;2023-03-01T15:54:24;29.95;;;12.82;;
74577;SDS011;63173;49.086;33.418;2023-03-01T15:56:51;32.17;;;12.43;;
74577;SDS011;63173;49.086;33.418;2023-03-01T15:59:17;28.33;;;12.23;;
74577;SDS011;63173;49.086;33.418;2023-03-01T16:01:43;35.80;;;13.75;;
74577;SDS011;63173;49.086;33.418;2023-03-01T16:04:13;30.73;;;12.38;;
74577;SDS011;63173;49.086;33.418;2023-03-01T16:06:54;33.58;;;12.77;;
74577;SDS011;63173;49.086;33.418;2023-03-01T16:09:23;32.28;;;13.45;;
74577;SDS011;63173;49.086;33.418;2023-03-01T16:11:50;34.45;;;13.05;;
74577;SDS011;63173;49.086;33.418;2023-03-01T16:14:16;31.75;;;11.85;;
74577;SDS011;63173;49.086;33.418;2023-03-01T16:16:42;28.83;;;13.75;;
74577;SDS011;63173;49.086;33.418;2023-03-01T16:19:08;27.17;;;12.30;;
74577;SDS011;63173;49.086;33.418;2023-03-01T16:21:35;35.25;;;13.10;;
74577;SDS011;63173;49.086;33.418;2023-03-01T16:24:00;30.65;;;13.40;;
74577;SDS011;63173;49.086;33.418;2023-03-01T16:26:26;32.30;;;11.82;;
74577;SDS011;63173;49.086;33.418;2023-03-01T16:28:54;33.90;;;13.15;;
74577;SDS011;63173;49.086;33.418;2023-03-01T16:31:21;33.08;;;13.95;;
74577;SDS011;63173;49.086;33.418;2023-03-01T16:33:46;41.90;;;13.77;;
74577;SDS011;63173;49.086;33.418;2023-03-01T16:36:15;36.47;;;14.40;;
74577;SDS011;63173;49.086;33.418;2023-03-01T16:38:42;34.92;;;13.40;;
74577;SDS011;63173;49.086;33.418;2023-03-01T16:41:11;40.78;;;14.85;;
74577;SDS011;63173;49.086;33.418;2023-03-01T16:43:38;35.67;;;13.35;;
74577;SDS011;63173;49.086;33.418;2023-03-01T16:46:37;35.72;;;13.20;;
74577;SDS011;63173;49.086;33.418;2023-03-01T16:48:56;44.95;;;15.10;;
74577;SDS011;63173;49.086;33.418;2023-03-01T16:51:22;35.70;;;14.25;;
74577;SDS011;63173;49.086;33.418;2023-03-01T16:53:48;31.00;;;12.82;;